Time;durP1;ratioP1;P1;durP2;ratioP2;P2;SDS_P1;SDS_P2;PMS_P1;PMS_P2;Temp;Humidity;BMP_temperature;BMP_pressure;BME280_temperature;BME280_humidity;BME280_pressure;Samples;Min_cycle;Max_cycle;Signal;HPM_P1;HPM_P2
2021/12/21 00:00:40;;;;;;;21.10;14.97;;;-2.20;99.90;;;-1.62;93.02;98720.09;5224191;28;20572;-57
2021/12/21 00:03:13;;;;;;;21.83;15.70;;;-2.20;99.90;;;-1.58;92.61;98722.22;5224182;28;20291;-58
2021/12/21 00:05:47;;;;;;;23.70;15.93;;;-2.10;99.90;;;-1.60;93.00;98716.16;5223096;28;20197;-60
2021/12/21 00:08:20;;;;;;;19.70;15.37;;;-2.10;99.90;;;-1.56;93.54;98715.78;5223841;28;20225;-58
2021/12/21 00:11:13;;;;;;;18.00;14.70;;;-2.10;99.90;;;-1.56;93.42;98710.78;5223909;28;20208;-60
2021/12/21 00:14:00;;;;;;;15.97;13.83;;;-2.10;99.90;;;-1.55;93.42;98717.56;5223716;28;20197;-60
2021/12/21 00:17:06;;;;;;;14.63;12.70;;;-2.10;99.90;;;-1.57;93.23;98711.50;5223298;28;20205;-60
2021/12/21 00:19:54;;;;;;;21.57;14.83;;;-2.20;99.90;;;-1.63;92.79;98713.25;5224469;28;20193;-58
2021/12/21 00:25:14;;;;;;;20.17;15.47;;;-2.20;99.90;;;-1.62;92.46;98705.06;5219673;28;20676;-60
2021/12/21 00:27:52;;;;;;;18.30;13.87;;;-2.20;99.90;;;-1.64;92.02;98701.47;5222564;28;20209;-59
2021/12/21 00:30:26;;;;;;;17.63;14.20;;;-2.20;99.90;;;-1.69;92.48;98702.53;5223625;28;20337;-58
2021/12/21 00:32:59;;;;;;;18.70;14.17;;;-2.30;99.90;;;-1.66;93.55;98702.88;5223831;28;20218;-63
2021/12/21 00:35:32;;;;;;;16.73;14.23;;;-2.20;99.90;;;-1.67;92.86;98693.59;5223481;28;20663;-56
2021/12/21 00:38:06;;;;;;;16.97;15.07;;;-2.20;99.90;;;-1.68;92.56;98694.31;5223219;28;20227;-59
2021/12/21 00:40:39;;;;;;;20.93;14.33;;;-2.20;99.90;;;-1.71;92.69;98701.47;5224060;28;20203;-59
2021/12/21 00:43:12;;;;;;;18.20;13.90;;;-2.30;99.90;;;-1.71;91.94;98693.97;5223400;28;20224;-57
2021/12/21 00:45:46;;;;;;;19.33;14.57;;;-2.20;99.90;;;-1.67;93.30;98693.59;5223659;28;20197;-61
2021/12/21 00:48:21;;;;;;;14.70;13.17;;;-2.30;99.90;;;-1.62;91.42;98697.53;5222822;28;20216;-61
2021/12/21 00:50:54;;;;;;;20.40;15.07;;;-2.30;99.90;;;-1.59;91.55;98685.38;5221957;28;20641;-58
2021/12/21 00:53:28;;;;;;;17.73;14.40;;;-2.40;99.90;;;-1.65;91.14;98680.53;5216861;28;20201;-56
2021/12/21 00:56:01;;;;;;;15.00;13.00;;;-2.40;99.90;;;-1.78;91.17;98676.41;5224213;28;20200;-57
2021/12/21 00:58:35;;;;;;;16.83;14.03;;;-2.50;99.90;;;-1.82;92.19;98678.56;5223602;28;20217;-59
2021/12/21 01:01:09;;;;;;;15.97;14.33;;;-2.50;99.90;;;-1.86;92.19;98673.00;5223697;28;20198;-59
2021/12/21 01:03:48;;;;;;;18.07;14.03;;;-2.50;99.90;;;-1.87;92.50;98667.09;5223434;28;20291;-61
2021/12/21 01:06:26;;;;;;;15.60;14.03;;;-2.50;99.90;;;-1.90;92.23;98666.72;5221421;28;20205;-57
2021/12/21 01:09:09;;;;;;;16.00;14.20;;;-2.50;99.90;;;-1.89;92.44;98670.13;5223689;28;20551;-55
2021/12/21 01:11:46;;;;;;;18.43;14.03;;;-2.50;99.90;;;-1.96;92.63;98671.03;5216140;28;20201;-55
2021/12/21 01:14:52;;;;;;;18.30;15.10;;;-2.60;99.90;;;-1.99;92.69;98665.66;5222897;28;20200;-58
2021/12/21 01:17:30;;;;;;;17.50;13.93;;;-2.60;99.90;;;-1.95;92.74;98661.91;5223408;28;20304;-58
2021/12/21 01:20:11;;;;;;;15.80;13.93;;;-2.50;99.90;;;-1.96;91.66;98665.13;5223646;28;20197;-60
2021/12/21 01:23:04;;;;;;;19.37;14.10;;;-2.60;99.90;;;-1.98;92.35;98664.94;5222959;28;20676;-61
2021/12/21 01:25:43;;;;;;;21.00;14.37;;;-2.60;99.90;;;-1.96;91.30;98670.13;5222987;28;20204;-57
2021/12/21 01:28:22;;;;;;;16.73;14.03;;;-2.50;99.90;;;-2.01;91.61;98672.09;5223429;28;20231;-60
2021/12/21 01:31:02;;;;;;;19.23;13.43;;;-2.60;99.90;;;-2.01;92.94;98671.19;5222860;28;20254;-60
2021/12/21 01:33:49;;;;;;;18.03;12.97;;;-2.60;99.90;;;-2.02;91.18;98665.31;5222112;28;20211;-56
2021/12/21 01:36:29;;;;;;;16.23;12.53;;;-2.60;99.90;;;-2.03;91.13;98663.53;5220727;28;20201;-59
2021/12/21 01:39:05;;;;;;;14.67;12.50;;;-2.70;99.90;;;-2.05;90.35;98659.94;5223264;28;20197;-61
2021/12/21 01:41:45;;;;;;;16.00;12.67;;;-2.70;99.90;;;-2.11;90.45;98655.09;5223206;28;20197;-57
2021/12/21 01:44:33;;;;;;;17.27;12.93;;;-2.70;99.90;;;-2.15;90.78;98662.06;5222714;28;20579;-58
2021/12/21 01:49:59;;;;;;;14.83;12.30;;;-2.80;99.90;;;-2.16;90.53;98660.28;5223764;28;20261;-59
2021/12/21 01:52:32;;;;;;;18.87;12.80;;;-2.80;99.90;;;-2.17;90.60;98656.00;5222818;28;20206;-57
2021/12/21 01:55:08;;;;;;;19.43;12.47;;;-2.80;99.90;;;-2.19;90.74;98650.78;5223060;28;20215;-60
2021/12/21 01:57:41;;;;;;;16.17;12.30;;;-2.80;99.90;;;-2.22;92.05;98649.53;5223340;28;20587;-59
2021/12/21 02:00:16;;;;;;;13.67;12.27;;;-2.70;99.90;;;-2.20;92.43;98643.09;5223190;28;20197;-58
2021/12/21 02:02:49;;;;;;;16.37;11.70;;;-2.70;99.90;;;-2.20;91.50;98646.50;5219844;28;20200;-60
2021/12/21 02:05:23;;;;;;;16.83;11.80;;;-2.70;99.90;;;-2.19;91.20;98649.91;5223685;28;20209;-58
2021/12/21 02:07:57;;;;;;;15.87;12.63;;;-2.80;99.90;;;-2.18;91.87;98655.06;5223307;28;20224;-59
2021/12/21 02:10:30;;;;;;;13.37;11.60;;;-2.80;99.90;;;-2.17;90.58;98659.38;5223120;28;20228;-57
2021/12/21 02:13:03;;;;;;;16.60;12.53;;;-2.80;99.90;;;-2.12;90.94;98657.41;5223767;28;20200;-60
2021/12/21 02:15:37;;;;;;;14.57;11.87;;;-2.80;99.90;;;-2.11;89.09;98650.09;5222447;28;20220;-57
2021/12/21 02:21:13;;;;;;;14.07;11.90;;;-2.90;99.90;;;-2.17;90.18;98648.47;5221809;28;20192;-58
2021/12/21 02:23:49;;;;;;;13.43;11.27;;;-3.00;99.90;;;-2.20;89.69;98645.59;5221396;28;20197;-53
2021/12/21 02:26:37;;;;;;;13.73;11.20;;;-3.00;99.90;;;-2.30;90.10;98648.63;5222801;28;20227;-58
2021/12/21 02:29:16;;;;;;;15.43;11.70;;;-3.00;99.90;;;-2.35;88.62;98642.16;5226929;28;20212;-57
2021/12/21 02:31:51;;;;;;;13.10;10.73;;;-3.00;99.90;;;-2.42;90.15;98635.56;5221586;28;20231;-56
2021/12/21 02:34:25;;;;;;;14.60;10.77;;;-3.10;99.90;;;-2.43;89.24;98638.78;5227039;28;20205;-58
2021/12/21 02:36:59;;;;;;;12.00;10.80;;;-3.10;99.90;;;-2.45;89.28;98645.19;5225324;28;20225;-57
2021/12/21 02:39:32;;;;;;;13.20;11.50;;;-3.10;99.90;;;-2.42;88.88;98640.56;5226453;28;20211;-58
2021/12/21 02:42:07;;;;;;;12.60;11.33;;;-3.10;99.90;;;-2.46;89.05;98643.41;5226165;28;20208;-56
2021/12/21 02:44:40;;;;;;;13.73;11.67;;;-3.20;99.90;;;-2.49;88.77;98643.03;5225580;28;20203;-58
2021/12/21 02:47:13;;;;;;;11.90;10.80;;;-3.20;99.90;;;-2.51;88.76;98641.97;5225441;28;20582;-61
2021/12/21 02:49:46;;;;;;;16.83;12.83;;;-3.20;99.90;;;-2.57;90.16;98643.75;5220805;28;20201;-57
2021/12/21 02:52:21;;;;;;;13.70;11.87;;;-3.20;99.90;;;-2.57;89.80;98643.75;5223183;28;20205;-60
2021/12/21 02:54:54;;;;;;;12.70;11.47;;;-3.30;99.90;;;-2.56;89.22;98645.53;5226703;28;20200;-60
2021/12/21 02:57:27;;;;;;;13.13;11.70;;;-3.20;99.90;;;-2.59;89.76;98642.66;5225948;28;20213;-54
2021/12/21 03:00:01;;;;;;;14.77;11.13;;;-3.30;99.90;;;-2.66;90.07;98642.63;5230420;28;20649;-60
2021/12/21 03:02:35;;;;;;;17.20;12.07;;;-3.30;99.90;;;-2.65;90.16;98639.44;5226169;28;20200;-59
2021/12/21 03:05:09;;;;;;;12.83;10.80;;;-3.30;99.90;;;-2.65;90.23;98631.91;5226685;28;20201;-57
2021/12/21 03:10:36;;;;;;;14.10;10.53;;;-3.40;99.90;;;-2.15;88.06;98644.53;5225549;28;21239;-59
2021/12/21 03:16:00;;;;;;;12.07;10.77;;;-3.10;99.90;;;-1.95;86.77;98636.84;5227094;28;20202;-56
2021/12/21 03:18:33;;;;;;;12.70;10.37;;;-3.00;99.90;;;-2.02;84.54;98640.25;5223926;28;20215;-57
2021/12/21 03:21:06;;;;;;;13.00;10.63;;;-3.10;99.90;;;-2.16;85.78;98641.13;5226717;28;20201;-57
2021/12/21 03:23:41;;;;;;;14.03;10.03;;;-3.10;99.90;;;-2.23;86.33;98638.63;5226322;28;20296;-58
2021/12/21 03:26:14;;;;;;;14.30;11.03;;;-3.10;99.90;;;-2.30;86.69;98649.50;5222967;28;20198;-61
2021/12/21 03:28:48;;;;;;;12.37;10.77;;;-3.20;99.90;;;-2.41;85.79;98654.84;5226144;28;20218;-57
2021/12/21 03:31:22;;;;;;;13.07;10.70;;;-3.20;99.90;;;-2.49;87.04;98648.03;5225453;28;20261;-58
2021/12/21 03:33:55;;;;;;;12.07;9.93;;;-3.30;99.90;;;-2.62;86.58;98647.28;5225973;28;20188;-61
2021/12/21 03:36:28;;;;;;;12.63;10.77;;;-3.40;99.90;;;-2.74;87.04;98645.13;5226487;28;20580;-58
2021/12/21 03:39:06;;;;;;;11.27;10.07;;;-3.50;99.90;;;-2.76;87.05;98653.13;5236293;22;20222;-54
2021/12/21 03:41:44;;;;;;;12.97;11.13;;;-3.50;99.90;;;-2.91;88.87;98647.19;5222821;28;20197;-56
2021/12/21 03:44:19;;;;;;;14.37;10.70;;;-3.50;99.90;;;-2.99;88.17;98646.25;5224087;28;20199;-60
2021/12/21 03:46:55;;;;;;;11.67;9.70;;;-3.60;99.90;;;-3.05;88.65;98649.63;5223501;28;20214;-59
2021/12/21 03:52:22;;;;;;;11.53;10.53;;;-3.70;99.90;;;-3.09;88.08;98647.44;5221338;28;20227;-57
2021/12/21 03:55:00;;;;;;;11.20;9.93;;;-3.70;99.90;;;-3.15;89.65;98646.69;5224910;28;20194;-59
2021/12/21 03:57:33;;;;;;;14.73;10.67;;;-3.70;99.90;;;-3.12;89.14;98637.06;5223191;28;20221;-59
2021/12/21 04:00:12;;;;;;;12.17;9.63;;;-3.70;99.90;;;-3.16;88.95;98638.31;5221551;28;20557;-60
2021/12/21 04:02:45;;;;;;;11.77;9.80;;;-3.70;99.90;;;-3.17;88.40;98639.91;5223867;28;20199;-57
2021/12/21 04:05:19;;;;;;;11.50;9.70;;;-3.80;99.90;;;-3.21;89.03;98641.84;5224372;28;20198;-61
2021/12/21 04:07:52;;;;;;;10.87;9.77;;;-3.80;99.90;;;-3.22;88.23;98648.47;5224487;28;20223;-57
2021/12/21 04:10:26;;;;;;;11.23;9.53;;;-3.80;99.90;;;-3.21;88.63;98636.84;5223215;28;20212;-59
2021/12/21 04:12:59;;;;;;;13.80;9.90;;;-3.80;99.90;;;-3.27;88.48;98646.09;5224160;28;20755;-59
2021/12/21 04:15:38;;;;;;;11.93;9.40;;;-3.80;99.90;;;-3.23;88.15;98651.69;5220668;28;20235;-59
2021/12/21 04:18:12;;;;;;;12.83;9.37;;;-3.80;99.90;;;-3.21;87.99;98654.34;5224950;28;20236;-60
2021/12/21 04:20:46;;;;;;;11.87;9.47;;;-3.80;99.90;;;-3.22;88.37;98653.47;5223676;28;20200;-59
2021/12/21 04:23:19;;;;;;;10.27;8.77;;;-3.80;99.90;;;-3.22;88.41;98650.06;5219488;28;20208;-58
2021/12/21 04:25:54;;;;;;;10.40;9.33;;;-3.90;99.90;;;-3.26;88.92;98648.81;5222084;28;20207;-57
2021/12/21 04:28:27;;;;;;;10.70;9.60;;;-3.90;99.90;;;-3.32;88.89;98649.63;5223816;28;20231;-59
2021/12/21 04:31:00;;;;;;;11.57;8.47;;;-3.90;99.90;;;-3.31;87.95;98649.84;5222367;28;20228;-58
2021/12/21 04:33:35;;;;;;;9.97;8.93;;;-4.00;99.90;;;-3.35;88.02;98651.75;5221432;28;20207;-60
2021/12/21 04:36:08;;;;;;;10.13;8.87;;;-4.00;99.90;;;-3.42;88.20;98642.63;5223663;28;20682;-59
2021/12/21 04:38:45;;;;;;;10.10;8.67;;;-4.00;99.90;;;-3.48;88.37;98652.75;5223349;28;20225;-60
2021/12/21 04:41:24;;;;;;;11.47;9.13;;;-4.00;99.90;;;-3.42;88.32;98645.13;5225108;28;20238;-59
2021/12/21 04:43:59;;;;;;;10.33;9.23;;;-4.00;99.90;;;-3.46;88.28;98643.88;5222762;28;20211;-59
2021/12/21 04:46:32;;;;;;;11.70;9.13;;;-4.10;99.90;;;-3.48;88.85;98652.75;5223108;28;20232;-57
2021/12/21 04:49:05;;;;;;;9.57;8.73;;;-4.10;99.90;;;-3.53;87.75;98650.41;5223354;28;20699;-58
2021/12/21 04:51:39;;;;;;;11.50;9.10;;;-4.20;99.90;;;-3.51;88.72;98649.91;5221082;28;20208;-59
2021/12/21 04:54:12;;;;;;;13.20;9.30;;;-4.10;99.90;;;-3.50;88.40;98650.78;5221665;28;20201;-59
2021/12/21 04:56:46;;;;;;;10.27;8.77;;;-4.00;99.90;;;-3.45;88.81;98654.75;5222947;28;20209;-59
2021/12/21 04:59:20;;;;;;;9.40;8.33;;;-4.10;99.90;;;-3.50;88.59;98644.19;5223228;28;20238;-56
2021/12/21 05:01:54;;;;;;;10.27;8.23;;;-4.10;99.90;;;-3.52;88.13;98647.19;5221057;28;20212;-60
2021/12/21 05:04:27;;;;;;;10.87;8.77;;;-4.10;99.90;;;-3.51;88.80;98644.91;5221402;28;20209;-59
2021/12/21 05:07:00;;;;;;;12.93;8.53;;;-4.20;99.90;;;-3.53;87.78;98643.81;5221760;28;20198;-56
2021/12/21 05:09:41;;;;;;;9.03;7.83;;;-4.20;99.90;;;-3.62;87.57;98647.66;5223603;28;20295;-57
2021/12/21 05:12:16;;;;;;;10.10;8.93;;;-4.20;99.90;;;-3.64;88.11;98647.47;5222016;28;20599;-58
2021/12/21 05:14:49;;;;;;;9.87;8.77;;;-4.30;99.90;;;-3.66;87.11;98636.41;5218741;28;20197;-58
2021/12/21 05:17:23;;;;;;;10.10;8.90;;;-4.30;99.90;;;-3.64;88.71;98631.59;5222542;28;20586;-56
2021/12/21 05:19:56;;;;;;;10.20;8.60;;;-4.20;99.90;;;-3.66;88.63;98638.03;5221923;28;20204;-58
2021/12/21 05:22:30;;;;;;;9.30;8.00;;;-4.20;99.90;;;-3.65;89.04;98633.19;5221550;28;20216;-58
2021/12/21 05:25:04;;;;;;;9.37;8.13;;;-4.20;99.90;;;-3.66;89.90;98628.91;5221312;28;20207;-59
2021/12/21 05:27:38;;;;;;;10.40;8.73;;;-4.20;99.90;;;-3.66;89.46;98623.94;5220313;28;20238;-60
2021/12/21 05:30:12;;;;;;;9.50;8.00;;;-4.10;99.90;;;-3.63;89.68;98626.81;5220819;28;20246;-59
2021/12/21 05:32:45;;;;;;;9.30;8.37;;;-4.20;99.90;;;-3.65;89.49;98625.72;5221091;28;20239;-60
2021/12/21 05:35:20;;;;;;;13.80;9.07;;;-4.20;99.90;;;-3.70;89.57;98621.75;5218179;28;20237;-57
2021/12/21 05:37:57;;;;;;;10.87;7.97;;;-4.20;99.90;;;-3.66;89.16;98623.94;5222204;28;20229;-60
2021/12/21 05:40:34;;;;;;;10.63;8.93;;;-4.20;99.90;;;-3.62;89.58;98618.59;5220120;28;20588;-59
2021/12/21 05:43:11;;;;;;;9.63;8.67;;;-4.10;99.90;;;-3.54;88.85;98622.03;5222177;28;20832;-59
2021/12/21 05:45:44;;;;;;;13.27;9.70;;;-4.10;99.90;;;-3.54;90.15;98617.03;5221648;28;20200;-60
2021/12/21 05:48:17;;;;;;;10.00;9.10;;;-4.00;99.90;;;-3.46;89.87;98625.50;5222306;28;20557;-59
2021/12/21 05:50:51;;;;;;;9.43;8.53;;;-4.00;99.90;;;-3.47;90.93;98621.19;5220715;28;20205;-60
2021/12/21 05:53:24;;;;;;;11.57;10.30;;;-4.00;99.90;;;-3.44;91.05;98619.94;5223507;28;20619;-60
2021/12/21 05:55:57;;;;;;;11.87;10.17;;;-3.90;99.90;;;-3.45;90.64;98624.78;5220488;28;20205;-60
2021/12/21 05:58:31;;;;;;;10.63;9.73;;;-3.90;99.90;;;-3.43;91.22;98629.25;5221791;28;20222;-58
2021/12/21 06:01:04;;;;;;;10.30;8.63;;;-3.90;99.90;;;-3.45;90.12;98622.28;5220769;28;20217;-62
2021/12/21 06:03:37;;;;;;;10.20;9.17;;;-4.00;99.90;;;-3.41;90.71;98626.91;5225191;28;20195;-60
2021/12/21 06:06:14;;;;;;;11.17;9.57;;;-4.00;99.90;;;-3.42;90.18;98630.13;5227417;28;20710;-58
2021/12/21 06:08:49;;;;;;;12.73;10.17;;;-3.90;99.90;;;-3.45;90.94;98623.16;5223391;28;20217;-59
2021/12/21 06:11:23;;;;;;;11.40;10.20;;;-3.90;99.90;;;-3.43;90.50;98625.88;5226950;28;20203;-60
2021/12/21 06:14:18;;;;;;;13.83;10.03;;;-3.90;99.90;;;-3.46;90.73;98623.00;5226243;28;20215;-60
2021/12/21 06:28:18;;;;;;;14.03;10.20;;;-4.00;99.90;;;-3.55;90.91;98621.84;5219246;28;20223;-60
2021/12/21 06:30:53;;;;;;;11.73;9.57;;;-4.10;99.90;;;-3.58;90.58;98616.47;5225270;28;20204;-59
2021/12/21 06:33:26;;;;;;;9.73;8.83;;;-4.10;99.90;;;-3.54;89.89;98618.66;5225401;28;20227;-58
2021/12/21 06:36:00;;;;;;;10.97;9.77;;;-4.10;99.90;;;-3.50;90.20;98620.81;5222816;28;20222;-58
2021/12/21 06:38:34;;;;;;;11.30;10.20;;;-4.00;99.90;;;-3.50;89.76;98620.81;5224803;28;20230;-60
2021/12/21 06:41:08;;;;;;;11.53;10.30;;;-4.00;99.90;;;-3.47;91.02;98621.19;5225728;28;20588;-60
2021/12/21 06:43:41;;;;;;;11.30;10.30;;;-4.00;99.90;;;-3.47;91.22;98622.06;5225110;28;20689;-59
2021/12/21 06:46:30;;;;;;;11.80;10.53;;;-4.00;99.90;;;-3.44;90.41;98621.56;5222510;28;20217;-58
2021/12/21 06:51:55;;;;;;;11.47;10.27;;;-4.00;99.90;;;-3.32;89.76;98613.06;5224364;28;20189;-59
2021/12/21 06:54:29;;;;;;;12.40;11.10;;;-4.10;99.90;;;-3.36;88.78;98610.88;5222309;28;20455;-56
2021/12/21 06:57:02;;;;;;;13.00;11.27;;;-4.10;99.90;;;-3.42;88.65;98616.03;5224412;28;20282;-59
2021/12/21 06:59:36;;;;;;;11.37;9.93;;;-4.10;99.90;;;-3.47;89.06;98614.56;5223930;28;20563;-59
2021/12/21 07:02:12;;;;;;;12.27;10.57;;;-4.10;99.90;;;-3.51;88.92;98616.53;5223474;28;20190;-57
2021/12/21 07:04:46;;;;;;;12.33;10.93;;;-4.10;99.90;;;-3.57;89.09;98613.28;5223603;28;20200;-62
2021/12/21 07:07:19;;;;;;;12.03;10.90;;;-4.10;99.90;;;-3.59;90.04;98610.56;5225496;28;20205;-60
2021/12/21 07:09:59;;;;;;;12.27;11.03;;;-4.10;99.90;;;-3.56;89.70;98613.44;5224082;28;20198;-60
2021/12/21 07:18:25;;;;;;;14.90;11.10;;;-4.10;99.90;;;-3.57;89.07;98616.66;5222974;28;20222;-60
2021/12/21 07:21:01;;;;;;;11.97;10.47;;;-4.20;99.90;;;-3.62;89.19;98626.09;5220733;28;20711;-59
2021/12/21 07:23:34;;;;;;;12.50;11.23;;;-4.20;99.90;;;-3.64;90.02;98615.00;5222623;28;20692;-60
2021/12/21 07:26:07;;;;;;;12.87;10.60;;;-4.10;99.90;;;-3.57;89.84;98619.16;5222658;28;20194;-59
2021/12/21 07:28:40;;;;;;;13.03;11.47;;;-4.10;99.90;;;-3.55;90.29;98622.72;5222974;28;20249;-59
2021/12/21 07:31:14;;;;;;;14.40;11.20;;;-4.10;99.90;;;-3.54;90.30;98623.66;5217592;28;20201;-59
2021/12/21 07:33:48;;;;;;;12.57;10.60;;;-4.00;99.90;;;-3.50;89.83;98629.19;5222422;28;20224;-59
2021/12/21 07:36:21;;;;;;;11.73;9.93;;;-4.00;99.90;;;-3.48;89.92;98619.41;5222989;28;20201;-59
2021/12/21 07:38:54;;;;;;;13.83;11.03;;;-4.00;99.90;;;-3.45;90.38;98627.25;5223819;28;20236;-59
2021/12/21 07:41:27;;;;;;;13.70;9.97;;;-4.00;99.90;;;-3.42;89.32;98636.03;5223896;28;20208;-59
2021/12/21 07:44:00;;;;;;;15.20;11.83;;;-4.00;99.90;;;-3.41;89.80;98631.91;5220683;28;20202;-59
2021/12/21 07:46:34;;;;;;;14.03;10.57;;;-4.00;99.90;;;-3.37;89.16;98633.22;5221518;28;20734;-60
2021/12/21 07:49:09;;;;;;;12.00;10.80;;;-4.00;99.90;;;-3.39;88.46;98630.50;5222836;28;20221;-60
2021/12/21 07:51:42;;;;;;;12.23;10.93;;;-4.00;99.90;;;-3.36;88.84;98640.88;5224441;28;20201;-60
2021/12/21 07:54:16;;;;;;;15.27;12.30;;;-4.00;99.90;;;-3.40;89.40;98639.63;5222101;28;20217;-58
2021/12/21 07:56:49;;;;;;;12.77;11.47;;;-3.90;99.90;;;-3.36;88.22;98638.38;5222466;28;20238;-61
2021/12/21 07:59:23;;;;;;;13.13;11.63;;;-4.00;99.90;;;-3.31;89.43;98639.84;5221327;28;20667;-57
2021/12/21 08:01:56;;;;;;;11.03;9.87;;;-3.90;99.90;;;-3.24;88.23;98642.38;5220455;28;20197;-61
2021/12/21 08:04:33;;;;;;;12.70;10.57;;;-3.90;99.90;;;-3.17;87.89;98636.53;5225135;28;20200;-58
2021/12/21 08:07:11;;;;;;;12.40;10.47;;;-3.80;99.90;;;-2.97;87.77;98641.44;5219839;28;20296;-59
2021/12/21 08:09:48;;;;;;;12.53;11.10;;;-3.50;99.90;;;-2.72;88.10;98641.19;5222285;28;20221;-60
2021/12/21 08:12:22;;;;;;;14.67;11.00;;;-3.20;99.90;;;-2.46;88.84;98653.44;5218743;28;20193;-59
2021/12/21 08:14:55;;;;;;;12.97;11.43;;;-3.00;99.90;;;-2.27;88.69;98647.38;5222453;28;20189;-59
2021/12/21 08:17:28;;;;;;;13.40;12.00;;;-2.80;99.90;;;-2.08;87.95;98644.56;5222667;28;20633;-59
2021/12/21 08:20:04;;;;;;;19.03;15.00;;;-2.60;99.90;;;-1.92;87.97;98642.22;5221060;28;20311;-59
2021/12/21 08:22:37;;;;;;;20.57;16.67;;;-2.50;99.90;;;-1.72;87.57;98642.03;5217192;28;20188;-61
2021/12/21 08:25:12;;;;;;;20.40;16.13;;;-2.20;99.90;;;-1.50;86.16;98642.94;5217896;28;20552;-59
2021/12/21 08:27:45;;;;;;;18.33;16.30;;;-2.10;99.90;;;-1.33;85.39;98649.88;5222771;28;20224;-59
2021/12/21 08:30:18;;;;;;;16.13;14.20;;;-1.90;99.90;;;-1.18;85.18;98644.09;5224146;28;20208;-58
2021/12/21 08:32:51;;;;;;;14.10;12.67;;;-1.80;99.90;;;-1.04;84.92;98641.56;5224038;28;20197;-59
2021/12/21 08:35:27;;;;;;;16.07;13.67;;;-1.70;99.90;;;-0.80;81.77;98653.50;5224355;28;20292;-59
2021/12/21 08:38:04;;;;;;;16.57;13.27;;;-1.60;99.90;;;-0.75;81.62;98648.97;5223749;28;20822;-59
2021/12/21 08:40:39;;;;;;;14.87;12.23;;;-1.70;99.90;;;-0.82;80.82;98657.44;5223966;28;20185;-59
2021/12/21 08:43:15;;;;;;;16.00;12.10;;;-1.60;99.90;;;-0.84;82.29;98658.00;5219631;28;20288;-60
2021/12/21 08:45:52;;;;;;;14.43;12.03;;;-1.50;99.90;;;-0.78;81.32;98656.16;5220612;28;20205;-59
2021/12/21 08:48:27;;;;;;;12.03;10.73;;;-1.40;99.90;;;-0.68;81.60;98648.97;5223853;28;20225;-58
2021/12/21 08:51:04;;;;;;;13.97;11.53;;;-1.30;99.90;;;-0.58;82.27;98651.78;5224759;28;20330;-59
2021/12/21 08:53:42;;;;;;;12.67;11.30;;;-1.10;99.90;;;-0.48;82.08;98657.13;5218419;28;20236;-60
2021/12/21 08:56:16;;;;;;;13.30;11.97;;;-1.00;99.90;;;-0.36;82.00;98645.03;5222285;28;20228;-59
2021/12/21 08:58:49;;;;;;;16.63;13.33;;;-0.90;99.90;;;-0.34;82.53;98640.19;5218124;28;20213;-59
2021/12/21 09:01:22;;;;;;;14.73;13.23;;;-0.80;99.90;;;-0.14;81.91;98643.28;5224515;28;20202;-59
2021/12/21 09:03:56;;;;;;;15.47;13.87;;;-0.90;99.90;;;0.11;80.30;98646.84;5224783;28;20204;-59
2021/12/21 09:06:31;;;;;;;16.90;13.67;;;-0.70;99.90;;;0.16;79.87;98647.38;5224708;28;20257;-60
2021/12/21 09:09:04;;;;;;;15.50;13.17;;;-0.50;99.90;;;0.08;79.76;98645.63;5219610;28;20565;-58
2021/12/21 09:11:38;;;;;;;23.87;17.97;;;-0.50;99.90;;;0.11;79.67;98645.97;5223534;28;20219;-59
2021/12/21 09:14:11;;;;;;;15.27;13.77;;;-0.50;99.90;;;0.21;80.62;98643.75;5221854;28;20624;-58
2021/12/21 09:16:45;;;;;;;13.80;11.00;;;-0.40;99.90;;;0.37;79.72;98649.72;5224964;28;20198;-60
2021/12/21 09:19:18;;;;;;;12.93;11.17;;;-0.20;99.90;;;0.33;79.31;98650.09;5224397;28;20226;-60
2021/12/21 09:22:00;;;;;;;13.50;12.10;;;-0.30;99.90;;;0.34;79.48;98641.81;5222666;28;20224;-57
2021/12/21 09:24:33;;;;;;;13.80;11.83;;;-0.30;99.90;;;0.41;79.39;98640.88;5222220;28;20283;-59
2021/12/21 09:27:07;;;;;;;13.50;11.77;;;-0.20;99.90;;;0.47;79.47;98643.19;5222547;28;20190;-59
2021/12/21 09:29:40;;;;;;;15.80;12.30;;;-0.20;99.90;;;0.58;78.95;98632.66;5222489;28;20199;-59
2021/12/21 09:32:15;;;;;;;15.43;12.77;;;0.00;99.90;;;0.74;78.58;98632.66;5221830;28;20585;-59
2021/12/21 09:34:48;;;;;;;14.60;12.87;;;0.20;99.90;;;0.81;79.04;98628.47;5220126;28;20228;-57
2021/12/21 09:40:12;;;;;;;15.10;12.37;;;0.40;99.90;;;0.91;78.29;98627.81;5225204;28;20217;-61
2021/12/21 09:42:46;;;;;;;13.47;12.17;;;0.40;99.90;;;0.95;78.59;98631.56;5222197;28;20197;-58
2021/12/21 09:45:20;;;;;;;18.37;11.83;;;0.40;99.90;;;1.07;78.95;98635.38;5225042;28;20222;-61
2021/12/21 09:47:53;;;;;;;13.40;12.00;;;0.50;99.90;;;1.16;77.92;98622.84;5225560;28;20282;-58
2021/12/21 09:50:27;;;;;;;12.10;10.37;;;0.60;99.90;;;1.25;77.07;98619.66;5225038;28;20212;-61
2021/12/21 09:53:00;;;;;;;11.53;10.33;;;0.60;99.90;;;1.20;78.63;98619.91;5224105;28;20208;-53
2021/12/21 09:55:34;;;;;;;12.73;10.30;;;0.70;99.90;;;1.31;78.72;98621.94;5225350;28;20221;-62
2021/12/21 09:58:07;;;;;;;12.60;10.87;;;0.80;99.90;;;1.35;78.34;98622.44;5225938;28;20222;-59
2021/12/21 10:00:40;;;;;;;12.17;11.00;;;0.90;99.90;;;1.43;78.47;98624.84;5226235;28;20583;-65
2021/12/21 10:03:14;;;;;;;14.43;11.73;;;0.90;99.90;;;1.63;78.71;98620.28;5217770;28;20289;-63
2021/12/21 10:05:48;;;;;;;13.13;11.07;;;1.00;99.90;;;1.76;78.30;98625.81;5222398;28;20647;-60
2021/12/21 10:08:21;;;;;;;14.57;13.13;;;1.10;99.90;;;1.72;77.36;98630.41;5223980;28;20224;-58
2021/12/21 10:10:55;;;;;;;14.67;12.13;;;1.00;99.90;;;1.65;78.69;98623.81;5226434;28;20210;-60
2021/12/21 10:13:29;;;;;;;13.63;12.27;;;1.00;99.90;;;1.67;77.73;98612.28;5224459;28;20584;-61
2021/12/21 10:16:06;;;;;;;13.73;12.17;;;1.00;99.90;;;1.73;77.28;98612.91;5225970;28;20203;-61
2021/12/21 10:18:41;;;;;;;12.47;11.27;;;1.00;99.90;;;1.81;77.91;98601.09;5225880;28;20561;-57
2021/12/21 10:21:17;;;;;;;12.53;10.87;;;1.10;99.90;;;1.75;78.42;98606.41;5225520;28;20209;-61
2021/12/21 10:23:52;;;;;;;12.97;11.87;;;1.20;99.90;;;1.76;78.93;98608.19;5226624;28;20279;-61
2021/12/21 10:26:29;;;;;;;12.77;11.47;;;1.20;99.90;;;1.86;78.57;98599.03;5227849;28;20235;-61
2021/12/21 10:29:08;;;;;;;12.87;11.67;;;1.30;99.90;;;2.03;77.96;98599.13;5227287;28;20549;-56
2021/12/21 10:31:42;;;;;;;12.50;11.23;;;1.40;99.90;;;2.19;78.15;98599.94;5224080;28;20199;-63
2021/12/21 10:34:20;;;;;;;11.73;10.57;;;1.50;99.90;;;2.33;77.43;98598.81;5226177;28;20234;-60
2021/12/21 10:36:53;;;;;;;12.40;11.10;;;1.60;99.90;;;2.35;76.82;98589.78;5224201;28;20201;-58
2021/12/21 10:39:31;;;;;;;12.77;11.47;;;1.60;99.90;;;2.37;76.68;98582.34;5225890;28;20233;-58
2021/12/21 10:42:06;;;;;;;12.13;10.87;;;1.70;99.90;;;2.43;75.60;98586.41;5223482;28;20193;-61
2021/12/21 10:44:46;;;;;;;11.30;10.10;;;1.80;99.90;;;2.59;74.08;98575.31;5226278;28;20272;-57
2021/12/21 10:47:19;;;;;;;11.30;9.00;;;1.90;99.90;;;2.48;74.13;98581.78;5222468;28;20215;-59
2021/12/21 10:49:53;;;;;;;10.77;9.83;;;1.90;99.90;;;2.52;74.39;98581.38;5224761;28;20229;-62
2021/12/21 10:52:26;;;;;;;10.80;9.50;;;1.90;99.90;;;2.73;73.26;98580.06;5218728;28;20212;-59
2021/12/21 10:55:00;;;;;;;11.23;9.70;;;2.10;99.90;;;2.66;73.96;98588.69;5224895;28;20220;-61
2021/12/21 10:57:36;;;;;;;10.70;9.07;;;2.10;99.90;;;2.59;75.39;98581.22;5223161;28;20207;-59
2021/12/21 11:00:14;;;;;;;9.70;8.77;;;2.00;99.90;;;2.62;75.78;98586.59;5223109;28;20668;-58
2021/12/21 11:02:56;;;;;;;9.93;9.03;;;2.00;99.90;;;2.76;75.50;98584.53;5216909;28;20246;-60
2021/12/21 11:05:35;;;;;;;10.87;9.67;;;2.10;99.90;;;2.78;75.53;98571.34;5220316;28;20582;-56
2021/12/21 11:08:16;;;;;;;11.63;10.53;;;2.10;99.90;;;2.84;75.54;98568.53;5224926;28;20221;-56
2021/12/21 11:10:51;;;;;;;12.50;11.23;;;2.10;99.90;;;2.91;76.25;98561.69;5218805;28;20656;-58
2021/12/21 11:13:26;;;;;;;13.27;11.97;;;2.20;99.90;;;2.90;75.79;98564.94;5223955;28;20224;-58
2021/12/21 11:16:03;;;;;;;13.13;11.87;;;2.30;99.90;;;3.07;75.02;98553.97;5219938;28;20230;-55
2021/12/21 11:18:38;;;;;;;11.60;9.73;;;2.40;99.90;;;3.03;75.13;98546.81;5221653;28;20705;-59
2021/12/21 11:21:11;;;;;;;10.97;9.53;;;2.40;99.90;;;3.00;75.74;98546.53;5219984;28;20226;-55
2021/12/21 11:23:45;;;;;;;10.00;8.97;;;2.40;99.90;;;3.04;75.44;98542.69;5222317;28;20198;-59